sensor_id;sensor_type;location;lat;lon;timestamp;P1;durP1;ratioP1;P2;durP2;ratioP2
8708;SDS011;4391;48.678;9.280;2024-02-28T00:01:49;29.65;;;12.63;;
8708;SDS011;4391;48.678;9.280;2024-02-28T00:04:16;28.25;;;12.60;;
8708;SDS011;4391;48.678;9.280;2024-02-28T00:06:44;25.30;;;11.70;;
8708;SDS011;4391;48.678;9.280;2024-02-28T00:09:11;25.07;;;12.00;;
8708;SDS011;4391;48.678;9.280;2024-02-28T00:11:41;25.38;;;11.85;;
8708;SDS011;4391;48.678;9.280;2024-02-28T00:14:09;27.83;;;11.68;;
8708;SDS011;4391;48.678;9.280;2024-02-28T00:16:36;24.73;;;11.82;;
8708;SDS011;4391;48.678;9.280;2024-02-28T00:19:09;28.38;;;11.52;;
8708;SDS011;4391;48.678;9.280;2024-02-28T00:21:37;24.77;;;12.00;;
8708;SDS011;4391;48.678;9.280;2024-02-28T00:24:04;25.52;;;12.77;;
8708;SDS011;4391;48.678;9.280;2024-02-28T00:26:32;24.20;;;11.20;;
8708;SDS011;4391;48.678;9.280;2024-02-28T00:28:59;23.45;;;11.30;;
8708;SDS011;4391;48.678;9.280;2024-02-28T00:31:26;23.95;;;11.15;;
8708;SDS011;4391;48.678;9.280;2024-02-28T00:33:52;23.10;;;11.27;;
8708;SDS011;4391;48.678;9.280;2024-02-28T00:36:21;25.67;;;11.90;;
8708;SDS011;4391;48.678;9.280;2024-02-28T00:38:48;26.95;;;12.77;;
8708;SDS011;4391;48.678;9.280;2024-02-28T00:41:14;24.92;;;11.32;;
8708;SDS011;4391;48.678;9.280;2024-02-28T00:43:41;28.02;;;11.20;;
8708;SDS011;4391;48.678;9.280;2024-02-28T00:46:08;28.10;;;12.20;;
8708;SDS011;4391;48.678;9.280;2024-02-28T00:48:37;25.45;;;11.52;;
8708;SDS011;4391;48.678;9.280;2024-02-28T00:51:04;27.25;;;12.73;;
8708;SDS011;4391;48.678;9.280;2024-02-28T00:53:32;24.63;;;11.85;;
8708;SDS011;4391;48.678;9.280;2024-02-28T00:55:59;25.42;;;11.55;;
8708;SDS011;4391;48.678;9.280;2024-02-28T00:58:26;25.23;;;11.57;;
8708;SDS011;4391;48.678;9.280;2024-02-28T01:00:55;30.50;;;12.98;;
8708;SDS011;4391;48.678;9.280;2024-02-28T01:03:21;27.90;;;12.90;;
8708;SDS011;4391;48.678;9.280;2024-02-28T01:05:48;27.17;;;12.55;;
8708;SDS011;4391;48.678;9.280;2024-02-28T01:08:15;25.92;;;11.82;;
8708;SDS011;4391;48.678;9.280;2024-02-28T01:10:44;29.87;;;12.60;;
8708;SDS011;4391;48.678;9.280;2024-02-28T01:13:11;27.63;;;12.25;;
8708;SDS011;4391;48.678;9.280;2024-02-28T01:15:39;26.15;;;12.25;;
8708;SDS011;4391;48.678;9.280;2024-02-28T01:18:06;28.30;;;12.88;;
8708;SDS011;4391;48.678;9.280;2024-02-28T01:20:33;29.13;;;11.93;;
8708;SDS011;4391;48.678;9.280;2024-02-28T01:23:00;25.97;;;11.90;;
8708;SDS011;4391;48.678;9.280;2024-02-28T01:25:27;25.75;;;11.50;;
8708;SDS011;4391;48.678;9.280;2024-02-28T01:27:56;26.02;;;12.10;;
8708;SDS011;4391;48.678;9.280;2024-02-28T01:30:24;28.45;;;11.70;;
8708;SDS011;4391;48.678;9.280;2024-02-28T01:32:50;29.70;;;12.45;;
8708;SDS011;4391;48.678;9.280;2024-02-28T01:35:17;24.23;;;12.23;;
8708;SDS011;4391;48.678;9.280;2024-02-28T01:37:44;27.63;;;12.35;;
8708;SDS011;4391;48.678;9.280;2024-02-28T01:40:11;28.35;;;12.65;;
8708;SDS011;4391;48.678;9.280;2024-02-28T01:42:39;29.15;;;13.05;;
8708;SDS011;4391;48.678;9.280;2024-02-28T01:45:08;28.02;;;12.10;;
8708;SDS011;4391;48.678;9.280;2024-02-28T01:47:39;27.67;;;12.53;;
8708;SDS011;4391;48.678;9.280;2024-02-28T01:50:06;28.25;;;12.85;;
8708;SDS011;4391;48.678;9.280;2024-02-28T01:52:35;29.45;;;12.98;;
8708;SDS011;4391;48.678;9.280;2024-02-28T01:55:02;28.67;;;12.98;;
8708;SDS011;4391;48.678;9.280;2024-02-28T01:57:31;29.30;;;12.73;;
8708;SDS011;4391;48.678;9.280;2024-02-28T01:59:58;28.97;;;12.73;;
8708;SDS011;4391;48.678;9.280;2024-02-28T02:02:27;26.23;;;11.63;;
8708;SDS011;4391;48.678;9.280;2024-02-28T02:04:54;26.33;;;12.68;;
8708;SDS011;4391;48.678;9.280;2024-02-28T02:07:23;28.80;;;13.48;;
8708;SDS011;4391;48.678;9.280;2024-02-28T02:09:51;30.38;;;12.90;;
8708;SDS011;4391;48.678;9.280;2024-02-28T02:12:18;23.83;;;11.33;;
8708;SDS011;4391;48.678;9.280;2024-02-28T02:14:46;25.95;;;11.73;;
8708;SDS011;4391;48.678;9.280;2024-02-28T02:17:13;29.00;;;12.07;;
8708;SDS011;4391;48.678;9.280;2024-02-28T02:19:42;28.00;;;12.15;;
8708;SDS011;4391;48.678;9.280;2024-02-28T02:22:09;25.48;;;12.32;;
8708;SDS011;4391;48.678;9.280;2024-02-28T02:24:40;29.10;;;13.43;;
8708;SDS011;4391;48.678;9.280;2024-02-28T02:27:06;31.30;;;12.65;;
8708;SDS011;4391;48.678;9.280;2024-02-28T02:29:33;29.27;;;12.55;;
8708;SDS011;4391;48.678;9.280;2024-02-28T02:32:00;27.17;;;12.07;;
8708;SDS011;4391;48.678;9.280;2024-02-28T02:34:27;26.48;;;12.70;;
8708;SDS011;4391;48.678;9.280;2024-02-28T02:36:54;26.13;;;12.60;;
8708;SDS011;4391;48.678;9.280;2024-02-28T02:39:20;29.08;;;12.95;;
8708;SDS011;4391;48.678;9.280;2024-02-28T02:41:49;28.95;;;12.57;;
8708;SDS011;4391;48.678;9.280;2024-02-28T02:44:15;26.85;;;13.10;;
8708;SDS011;4391;48.678;9.280;2024-02-28T02:46:42;28.20;;;12.88;;
8708;SDS011;4391;48.678;9.280;2024-02-28T02:49:09;28.83;;;13.03;;
8708;SDS011;4391;48.678;9.280;2024-02-28T02:51:36;27.42;;;12.50;;
8708;SDS011;4391;48.678;9.280;2024-02-28T02:54:03;29.88;;;12.98;;
8708;SDS011;4391;48.678;9.280;2024-02-28T02:56:30;29.90;;;13.88;;
8708;SDS011;4391;48.678;9.280;2024-02-28T02:58:58;29.77;;;12.77;;
8708;SDS011;4391;48.678;9.280;2024-02-28T03:01:25;28.67;;;13.00;;
8708;SDS011;4391;48.678;9.280;2024-02-28T03:03:52;29.00;;;13.38;;
8708;SDS011;4391;48.678;9.280;2024-02-28T03:06:18;32.05;;;14.23;;
8708;SDS011;4391;48.678;9.280;2024-02-28T03:08:46;32.00;;;13.02;;
8708;SDS011;4391;48.678;9.280;2024-02-28T03:11:12;28.25;;;12.95;;
8708;SDS011;4391;48.678;9.280;2024-02-28T03:13:40;29.00;;;13.33;;
8708;SDS011;4391;48.678;9.280;2024-02-28T03:16:08;29.08;;;13.02;;
8708;SDS011;4391;48.678;9.280;2024-02-28T03:18:35;33.28;;;13.52;;
8708;SDS011;4391;48.678;9.280;2024-02-28T03:21:03;32.58;;;13.10;;
8708;SDS011;4391;48.678;9.280;2024-02-28T03:23:30;29.48;;;13.45;;
8708;SDS011;4391;48.678;9.280;2024-02-28T03:25:56;30.60;;;12.93;;
8708;SDS011;4391;48.678;9.280;2024-02-28T03:28:23;29.40;;;12.82;;
8708;SDS011;4391;48.678;9.280;2024-02-28T03:30:50;33.83;;;13.43;;
8708;SDS011;4391;48.678;9.280;2024-02-28T03:33:18;30.05;;;12.68;;
8708;SDS011;4391;48.678;9.280;2024-02-28T03:35:45;29.80;;;13.75;;
8708;SDS011;4391;48.678;9.280;2024-02-28T03:38:12;30.73;;;13.17;;
8708;SDS011;4391;48.678;9.280;2024-02-28T03:40:39;31.70;;;13.48;;
8708;SDS011;4391;48.678;9.280;2024-02-28T03:43:06;32.25;;;12.95;;
8708;SDS011;4391;48.678;9.280;2024-02-28T03:45:36;31.17;;;13.82;;
8708;SDS011;4391;48.678;9.280;2024-02-28T03:48:04;29.45;;;12.70;;
8708;SDS011;4391;48.678;9.280;2024-02-28T03:50:32;29.23;;;12.57;;
8708;SDS011;4391;48.678;9.280;2024-02-28T03:52:59;29.58;;;13.10;;
8708;SDS011;4391;48.678;9.280;2024-02-28T03:55:26;32.83;;;12.73;;
8708;SDS011;4391;48.678;9.280;2024-02-28T03:57:53;32.55;;;12.90;;
8708;SDS011;4391;48.678;9.280;2024-02-28T04:00:20;30.02;;;13.27;;
8708;SDS011;4391;48.678;9.280;2024-02-28T04:02:47;29.40;;;12.27;;
8708;SDS011;4391;48.678;9.280;2024-02-28T04:05:13;30.05;;;13.20;;
8708;SDS011;4391;48.678;9.280;2024-02-28T04:07:43;31.02;;;12.50;;
8708;SDS011;4391;48.678;9.280;2024-02-28T04:10:10;30.35;;;13.65;;
8708;SDS011;4391;48.678;9.280;2024-02-28T04:12:37;31.27;;;13.93;;
8708;SDS011;4391;48.678;9.280;2024-02-28T04:15:04;30.90;;;13.67;;
8708;SDS011;4391;48.678;9.280;2024-02-28T04:17:31;30.20;;;12.30;;
8708;SDS011;4391;48.678;9.280;2024-02-28T04:19:58;32.30;;;13.82;;
8708;SDS011;4391;48.678;9.280;2024-02-28T04:22:29;30.88;;;14.20;;
8708;SDS011;4391;48.678;9.280;2024-02-28T04:24:57;30.50;;;12.43;;
8708;SDS011;4391;48.678;9.280;2024-02-28T04:27:24;30.43;;;13.23;;
8708;SDS011;4391;48.678;9.280;2024-02-28T04:29:51;33.30;;;13.85;;
8708;SDS011;4391;48.678;9.280;2024-02-28T04:32:18;28.00;;;12.23;;
8708;SDS011;4391;48.678;9.280;2024-02-28T04:34:44;28.25;;;12.65;;
8708;SDS011;4391;48.678;9.280;2024-02-28T04:37:11;31.80;;;13.35;;
8708;SDS011;4391;48.678;9.280;2024-02-28T04:39:38;30.53;;;13.03;;
8708;SDS011;4391;48.678;9.280;2024-02-28T04:42:06;30.27;;;12.50;;
8708;SDS011;4391;48.678;9.280;2024-02-28T04:44:33;29.88;;;13.55;;
8708;SDS011;4391;48.678;9.280;2024-02-28T04:47:01;32.05;;;14.18;;
8708;SDS011;4391;48.678;9.280;2024-02-28T04:49:29;31.65;;;12.30;;
8708;SDS011;4391;48.678;9.280;2024-02-28T04:51:56;30.27;;;12.20;;
8708;SDS011;4391;48.678;9.280;2024-02-28T04:54:23;28.98;;;12.55;;
8708;SDS011;4391;48.678;9.280;2024-02-28T04:56:50;31.30;;;13.32;;
8708;SDS011;4391;48.678;9.280;2024-02-28T04:59:18;31.98;;;12.55;;
8708;SDS011;4391;48.678;9.280;2024-02-28T05:01:45;31.95;;;13.05;;
8708;SDS011;4391;48.678;9.280;2024-02-28T05:04:13;30.17;;;12.00;;
8708;SDS011;4391;48.678;9.280;2024-02-28T05:06:40;28.50;;;12.73;;
8708;SDS011;4391;48.678;9.280;2024-02-28T05:09:07;30.23;;;12.27;;
8708;SDS011;4391;48.678;9.280;2024-02-28T05:11:34;29.08;;;11.82;;
8708;SDS011;4391;48.678;9.280;2024-02-28T05:14:00;29.40;;;12.57;;
8708;SDS011;4391;48.678;9.280;2024-02-28T05:16:29;32.57;;;13.20;;
8708;SDS011;4391;48.678;9.280;2024-02-28T05:18:55;29.83;;;13.20;;
8708;SDS011;4391;48.678;9.280;2024-02-28T05:21:22;28.50;;;13.27;;
8708;SDS011;4391;48.678;9.280;2024-02-28T05:23:49;30.52;;;12.73;;
8708;SDS011;4391;48.678;9.280;2024-02-28T05:26:16;30.65;;;12.55;;
8708;SDS011;4391;48.678;9.280;2024-02-28T05:28:43;26.00;;;11.97;;
8708;SDS011;4391;48.678;9.280;2024-02-28T05:31:19;25.48;;;11.52;;
8708;SDS011;4391;48.678;9.280;2024-02-28T05:33:49;29.45;;;11.98;;
8708;SDS011;4391;48.678;9.280;2024-02-28T05:36:17;26.95;;;12.73;;
8708;SDS011;4391;48.678;9.280;2024-02-28T05:38:44;32.42;;;12.20;;
8708;SDS011;4391;48.678;9.280;2024-02-28T05:41:11;25.53;;;11.90;;
8708;SDS011;4391;48.678;9.280;2024-02-28T05:43:38;37.92;;;16.05;;
8708;SDS011;4391;48.678;9.280;2024-02-28T05:46:05;40.28;;;18.10;;
8708;SDS011;4391;48.678;9.280;2024-02-28T05:48:31;31.58;;;14.73;;
8708;SDS011;4391;48.678;9.280;2024-02-28T05:51:01;31.55;;;12.73;;
8708;SDS011;4391;48.678;9.280;2024-02-28T05:53:28;27.60;;;12.30;;
8708;SDS011;4391;48.678;9.280;2024-02-28T05:56:00;30.63;;;11.30;;
8708;SDS011;4391;48.678;9.280;2024-02-28T05:58:27;28.17;;;11.70;;
8708;SDS011;4391;48.678;9.280;2024-02-28T06:00:54;25.80;;;11.23;;
8708;SDS011;4391;48.678;9.280;2024-02-28T06:03:21;29.23;;;12.00;;
8708;SDS011;4391;48.678;9.280;2024-02-28T06:05:48;26.47;;;11.60;;
8708;SDS011;4391;48.678;9.280;2024-02-28T06:08:17;29.10;;;12.30;;
8708;SDS011;4391;48.678;9.280;2024-02-28T06:10:43;26.38;;;11.68;;
8708;SDS011;4391;48.678;9.280;2024-02-28T06:13:11;26.75;;;12.25;;
8708;SDS011;4391;48.678;9.280;2024-02-28T06:15:39;30.02;;;12.25;;
8708;SDS011;4391;48.678;9.280;2024-02-28T06:18:05;30.67;;;12.10;;
8708;SDS011;4391;48.678;9.280;2024-02-28T06:20:32;24.90;;;11.32;;
8708;SDS011;4391;48.678;9.280;2024-02-28T06:22:59;27.88;;;12.25;;
8708;SDS011;4391;48.678;9.280;2024-02-28T06:25:27;28.98;;;11.95;;
8708;SDS011;4391;48.678;9.280;2024-02-28T06:27:54;25.77;;;11.93;;
8708;SDS011;4391;48.678;9.280;2024-02-28T06:30:21;25.70;;;12.20;;
8708;SDS011;4391;48.678;9.280;2024-02-28T06:32:48;28.92;;;13.02;;
8708;SDS011;4391;48.678;9.280;2024-02-28T06:35:15;27.95;;;12.07;;
8708;SDS011;4391;48.678;9.280;2024-02-28T06:37:42;25.98;;;11.77;;
8708;SDS011;4391;48.678;9.280;2024-02-28T06:40:14;28.10;;;12.20;;
8708;SDS011;4391;48.678;9.280;2024-02-28T06:42:43;30.47;;;13.40;;
8708;SDS011;4391;48.678;9.280;2024-02-28T06:45:10;26.30;;;11.85;;
8708;SDS011;4391;48.678;9.280;2024-02-28T06:47:37;29.05;;;12.27;;
8708;SDS011;4391;48.678;9.280;2024-02-28T06:50:05;27.58;;;11.68;;
8708;SDS011;4391;48.678;9.280;2024-02-28T06:52:33;25.15;;;11.30;;
8708;SDS011;4391;48.678;9.280;2024-02-28T06:55:01;27.77;;;11.70;;
8708;SDS011;4391;48.678;9.280;2024-02-28T06:57:31;27.08;;;12.27;;
8708;SDS011;4391;48.678;9.280;2024-02-28T06:59:59;32.15;;;12.40;;
8708;SDS011;4391;48.678;9.280;2024-02-28T07:02:26;30.02;;;12.45;;
8708;SDS011;4391;48.678;9.280;2024-02-28T07:04:53;25.20;;;11.40;;
8708;SDS011;4391;48.678;9.280;2024-02-28T07:07:20;28.93;;;12.33;;
8708;SDS011;4391;48.678;9.280;2024-02-28T07:09:47;25.83;;;12.30;;
8708;SDS011;4391;48.678;9.280;2024-02-28T07:12:13;27.85;;;12.07;;
8708;SDS011;4391;48.678;9.280;2024-02-28T07:14:40;25.25;;;11.18;;
8708;SDS011;4391;48.678;9.280;2024-02-28T07:17:08;25.92;;;11.52;;
8708;SDS011;4391;48.678;9.280;2024-02-28T07:19:35;24.93;;;11.13;;
8708;SDS011;4391;48.678;9.280;2024-02-28T07:22:03;23.70;;;11.05;;
8708;SDS011;4391;48.678;9.280;2024-02-28T07:24:30;24.48;;;11.20;;
8708;SDS011;4391;48.678;9.280;2024-02-28T07:26:57;26.77;;;11.32;;
8708;SDS011;4391;48.678;9.280;2024-02-28T07:29:24;29.35;;;11.95;;
8708;SDS011;4391;48.678;9.280;2024-02-28T07:31:51;32.03;;;11.67;;
8708;SDS011;4391;48.678;9.280;2024-02-28T07:34:19;23.88;;;11.55;;
8708;SDS011;4391;48.678;9.280;2024-02-28T07:36:46;24.77;;;11.20;;
8708;SDS011;4391;48.678;9.280;2024-02-28T07:39:13;24.23;;;11.40;;
8708;SDS011;4391;48.678;9.280;2024-02-28T07:41:40;26.95;;;12.15;;
8708;SDS011;4391;48.678;9.280;2024-02-28T07:44:08;28.00;;;11.70;;
8708;SDS011;4391;48.678;9.280;2024-02-28T07:46:36;24.25;;;10.90;;
8708;SDS011;4391;48.678;9.280;2024-02-28T07:49:03;24.83;;;12.27;;
8708;SDS011;4391;48.678;9.280;2024-02-28T07:51:31;27.27;;;12.32;;
8708;SDS011;4391;48.678;9.280;2024-02-28T07:53:58;25.77;;;11.05;;
8708;SDS011;4391;48.678;9.280;2024-02-28T07:56:25;25.57;;;11.17;;
8708;SDS011;4391;48.678;9.280;2024-02-28T07:58:51;25.85;;;11.88;;
8708;SDS011;4391;48.678;9.280;2024-02-28T08:01:18;25.35;;;11.48;;
8708;SDS011;4391;48.678;9.280;2024-02-28T08:03:47;27.10;;;11.98;;
8708;SDS011;4391;48.678;9.280;2024-02-28T08:06:20;30.00;;;11.40;;
8708;SDS011;4391;48.678;9.280;2024-02-28T08:08:52;26.20;;;12.03;;
8708;SDS011;4391;48.678;9.280;2024-02-28T08:11:19;31.05;;;11.98;;
8708;SDS011;4391;48.678;9.280;2024-02-28T08:13:46;38.50;;;14.52;;
8708;SDS011;4391;48.678;9.280;2024-02-28T08:19:16;25.83;;;12.27;;
8708;SDS011;4391;48.678;9.280;2024-02-28T08:21:43;30.30;;;13.27;;
8708;SDS011;4391;48.678;9.280;2024-02-28T08:24:11;27.77;;;12.23;;
8708;SDS011;4391;48.678;9.280;2024-02-28T08:26:38;26.38;;;11.73;;
8708;SDS011;4391;48.678;9.280;2024-02-28T08:29:06;23.77;;;10.98;;
8708;SDS011;4391;48.678;9.280;2024-02-28T08:31:33;25.73;;;11.55;;
8708;SDS011;4391;48.678;9.280;2024-02-28T08:34:05;24.23;;;10.87;;
8708;SDS011;4391;48.678;9.280;2024-02-28T08:36:32;24.75;;;11.90;;
8708;SDS011;4391;48.678;9.280;2024-02-28T08:38:59;26.35;;;11.05;;
8708;SDS011;4391;48.678;9.280;2024-02-28T08:41:27;22.33;;;11.13;;
8708;SDS011;4391;48.678;9.280;2024-02-28T08:43:54;23.65;;;11.57;;
8708;SDS011;4391;48.678;9.280;2024-02-28T08:46:21;22.80;;;10.83;;
8708;SDS011;4391;48.678;9.280;2024-02-28T08:48:48;24.38;;;10.85;;
8708;SDS011;4391;48.678;9.280;2024-02-28T08:51:15;21.30;;;10.75;;
8708;SDS011;4391;48.678;9.280;2024-02-28T08:53:42;27.02;;;11.18;;
8708;SDS011;4391;48.678;9.280;2024-02-28T08:56:10;22.75;;;10.75;;
8708;SDS011;4391;48.678;9.280;2024-02-28T08:58:38;23.10;;;10.67;;
8708;SDS011;4391;48.678;9.280;2024-02-28T09:01:05;23.10;;;10.07;;
8708;SDS011;4391;48.678;9.280;2024-02-28T09:03:32;24.50;;;10.93;;
8708;SDS011;4391;48.678;9.280;2024-02-28T09:05:58;22.23;;;11.02;;
8708;SDS011;4391;48.678;9.280;2024-02-28T09:08:25;21.77;;;10.63;;
8708;SDS011;4391;48.678;9.280;2024-02-28T09:10:52;22.70;;;10.63;;
8708;SDS011;4391;48.678;9.280;2024-02-28T09:13:19;19.85;;;9.98;;
8708;SDS011;4391;48.678;9.280;2024-02-28T09:15:47;20.83;;;9.88;;
8708;SDS011;4391;48.678;9.280;2024-02-28T09:18:14;19.45;;;9.35;;
8708;SDS011;4391;48.678;9.280;2024-02-28T09:20:41;19.20;;;9.43;;
8708;SDS011;4391;48.678;9.280;2024-02-28T09:23:09;18.83;;;9.20;;
8708;SDS011;4391;48.678;9.280;2024-02-28T09:25:36;20.75;;;9.60;;
8708;SDS011;4391;48.678;9.280;2024-02-28T09:28:03;25.17;;;9.60;;
8708;SDS011;4391;48.678;9.280;2024-02-28T09:30:30;23.95;;;10.65;;
8708;SDS011;4391;48.678;9.280;2024-02-28T09:32:58;20.05;;;9.50;;
8708;SDS011;4391;48.678;9.280;2024-02-28T09:35:25;20.60;;;9.63;;
8708;SDS011;4391;48.678;9.280;2024-02-28T09:37:52;21.15;;;10.25;;
8708;SDS011;4391;48.678;9.280;2024-02-28T09:40:19;21.05;;;9.32;;
8708;SDS011;4391;48.678;9.280;2024-02-28T09:42:47;21.45;;;9.48;;
8708;SDS011;4391;48.678;9.280;2024-02-28T09:45:19;22.50;;;10.10;;
8708;SDS011;4391;48.678;9.280;2024-02-28T09:47:47;23.23;;;10.37;;
8708;SDS011;4391;48.678;9.280;2024-02-28T09:50:16;23.73;;;9.80;;
8708;SDS011;4391;48.678;9.280;2024-02-28T09:52:44;19.25;;;9.02;;
8708;SDS011;4391;48.678;9.280;2024-02-28T09:55:11;21.67;;;9.02;;
8708;SDS011;4391;48.678;9.280;2024-02-28T09:57:38;19.20;;;8.88;;
8708;SDS011;4391;48.678;9.280;2024-02-28T10:00:09;20.70;;;9.93;;
8708;SDS011;4391;48.678;9.280;2024-02-28T10:02:36;20.55;;;9.77;;
8708;SDS011;4391;48.678;9.280;2024-02-28T10:05:05;19.23;;;9.10;;
8708;SDS011;4391;48.678;9.280;2024-02-28T10:07:35;19.27;;;9.60;;
8708;SDS011;4391;48.678;9.280;2024-02-28T10:10:02;21.00;;;9.02;;
8708;SDS011;4391;48.678;9.280;2024-02-28T10:12:30;20.10;;;9.03;;
8708;SDS011;4391;48.678;9.280;2024-02-28T10:14:57;17.17;;;8.57;;
8708;SDS011;4391;48.678;9.280;2024-02-28T10:17:26;19.15;;;8.10;;
8708;SDS011;4391;48.678;9.280;2024-02-28T10:19:52;22.13;;;8.63;;
8708;SDS011;4391;48.678;9.280;2024-02-28T10:22:19;19.42;;;9.05;;
8708;SDS011;4391;48.678;9.280;2024-02-28T10:24:48;20.90;;;8.60;;
8708;SDS011;4391;48.678;9.280;2024-02-28T10:27:15;19.98;;;8.77;;
8708;SDS011;4391;48.678;9.280;2024-02-28T10:29:44;23.50;;;8.57;;
8708;SDS011;4391;48.678;9.280;2024-02-28T10:32:11;21.50;;;9.38;;
8708;SDS011;4391;48.678;9.280;2024-02-28T10:34:38;19.75;;;8.73;;
8708;SDS011;4391;48.678;9.280;2024-02-28T10:37:06;20.23;;;9.03;;
8708;SDS011;4391;48.678;9.280;2024-02-28T10:39:35;18.42;;;9.35;;
8708;SDS011;4391;48.678;9.280;2024-02-28T10:42:03;21.02;;;9.52;;
8708;SDS011;4391;48.678;9.280;2024-02-28T10:44:32;20.42;;;9.27;;
8708;SDS011;4391;48.678;9.280;2024-02-28T10:47:02;21.88;;;9.65;;
8708;SDS011;4391;48.678;9.280;2024-02-28T10:49:29;22.63;;;9.20;;
8708;SDS011;4391;48.678;9.280;2024-02-28T10:51:56;19.35;;;8.40;;
8708;SDS011;4391;48.678;9.280;2024-02-28T10:54:25;18.23;;;8.25;;
8708;SDS011;4391;48.678;9.280;2024-02-28T10:56:55;23.60;;;10.18;;
8708;SDS011;4391;48.678;9.280;2024-02-28T10:59:25;19.30;;;9.02;;
8708;SDS011;4391;48.678;9.280;2024-02-28T11:01:54;21.80;;;9.13;;
8708;SDS011;4391;48.678;9.280;2024-02-28T11:04:21;25.45;;;9.68;;
8708;SDS011;4391;48.678;9.280;2024-02-28T11:06:48;18.95;;;8.25;;
8708;SDS011;4391;48.678;9.280;2024-02-28T11:09:20;21.75;;;9.43;;
8708;SDS011;4391;48.678;9.280;2024-02-28T11:11:48;22.17;;;9.38;;
8708;SDS011;4391;48.678;9.280;2024-02-28T11:14:16;21.93;;;9.47;;
8708;SDS011;4391;48.678;9.280;2024-02-28T11:16:48;21.60;;;9.32;;
8708;SDS011;4391;48.678;9.280;2024-02-28T11:19:27;22.90;;;9.35;;
8708;SDS011;4391;48.678;9.280;2024-02-28T11:21:54;21.13;;;9.18;;
8708;SDS011;4391;48.678;9.280;2024-02-28T11:24:22;19.83;;;9.00;;
8708;SDS011;4391;48.678;9.280;2024-02-28T11:26:50;22.47;;;9.27;;
8708;SDS011;4391;48.678;9.280;2024-02-28T11:29:21;21.52;;;8.82;;
8708;SDS011;4391;48.678;9.280;2024-02-28T11:31:51;18.05;;;8.45;;
8708;SDS011;4391;48.678;9.280;2024-02-28T11:34:18;19.55;;;9.40;;
8708;SDS011;4391;48.678;9.280;2024-02-28T11:36:46;21.77;;;9.07;;
8708;SDS011;4391;48.678;9.280;2024-02-28T11:39:14;21.87;;;9.30;;
8708;SDS011;4391;48.678;9.280;2024-02-28T11:41:42;17.70;;;8.00;;
8708;SDS011;4391;48.678;9.280;2024-02-28T11:44:11;21.92;;;8.75;;
8708;SDS011;4391;48.678;9.280;2024-02-28T11:46:42;27.23;;;9.73;;
8708;SDS011;4391;48.678;9.280;2024-02-28T11:49:12;23.92;;;9.40;;
8708;SDS011;4391;48.678;9.280;2024-02-28T11:51:39;42.40;;;16.40;;
8708;SDS011;4391;48.678;9.280;2024-02-28T11:54:07;36.80;;;13.32;;
8708;SDS011;4391;48.678;9.280;2024-02-28T11:56:35;22.15;;;9.57;;
8708;SDS011;4391;48.678;9.280;2024-02-28T11:59:03;19.90;;;8.30;;
8708;SDS011;4391;48.678;9.280;2024-02-28T12:01:34;23.83;;;11.63;;
8708;SDS011;4391;48.678;9.280;2024-02-28T12:04:02;23.17;;;10.00;;
8708;SDS011;4391;48.678;9.280;2024-02-28T12:06:32;21.15;;;9.20;;
8708;SDS011;4391;48.678;9.280;2024-02-28T12:09:01;24.35;;;10.27;;
8708;SDS011;4391;48.678;9.280;2024-02-28T12:11:29;22.27;;;9.65;;
8708;SDS011;4391;48.678;9.280;2024-02-28T12:13:56;20.60;;;8.95;;
8708;SDS011;4391;48.678;9.280;2024-02-28T12:16:24;23.57;;;10.00;;
8708;SDS011;4391;48.678;9.280;2024-02-28T12:18:52;22.13;;;11.57;;
8708;SDS011;4391;48.678;9.280;2024-02-28T12:21:20;24.52;;;10.02;;
8708;SDS011;4391;48.678;9.280;2024-02-28T12:23:47;27.50;;;12.90;;
8708;SDS011;4391;48.678;9.280;2024-02-28T12:26:16;24.75;;;10.43;;
8708;SDS011;4391;48.678;9.280;2024-02-28T12:28:43;21.83;;;9.40;;
8708;SDS011;4391;48.678;9.280;2024-02-28T12:31:10;21.20;;;9.63;;
8708;SDS011;4391;48.678;9.280;2024-02-28T12:33:38;25.60;;;12.30;;
8708;SDS011;4391;48.678;9.280;2024-02-28T12:36:05;26.15;;;11.77;;
8708;SDS011;4391;48.678;9.280;2024-02-28T12:38:32;21.33;;;9.38;;
8708;SDS011;4391;48.678;9.280;2024-02-28T12:41:01;24.27;;;11.50;;
8708;SDS011;4391;48.678;9.280;2024-02-28T12:43:29;24.15;;;11.52;;
8708;SDS011;4391;48.678;9.280;2024-02-28T12:45:57;26.52;;;11.45;;
8708;SDS011;4391;48.678;9.280;2024-02-28T12:48:24;26.63;;;10.77;;
8708;SDS011;4391;48.678;9.280;2024-02-28T12:50:50;24.30;;;12.40;;
8708;SDS011;4391;48.678;9.280;2024-02-28T12:53:17;22.87;;;11.57;;
8708;SDS011;4391;48.678;9.280;2024-02-28T12:55:44;31.70;;;13.23;;
8708;SDS011;4391;48.678;9.280;2024-02-28T12:58:12;26.33;;;10.93;;
8708;SDS011;4391;48.678;9.280;2024-02-28T13:00:39;21.10;;;10.60;;
8708;SDS011;4391;48.678;9.280;2024-02-28T13:03:06;26.73;;;11.77;;
8708;SDS011;4391;48.678;9.280;2024-02-28T13:05:33;25.00;;;11.27;;
8708;SDS011;4391;48.678;9.280;2024-02-28T13:08:00;22.75;;;10.80;;
8708;SDS011;4391;48.678;9.280;2024-02-28T13:10:27;24.95;;;11.20;;
8708;SDS011;4391;48.678;9.280;2024-02-28T13:12:54;24.35;;;10.05;;
8708;SDS011;4391;48.678;9.280;2024-02-28T13:15:22;46.72;;;20.52;;
8708;SDS011;4391;48.678;9.280;2024-02-28T13:17:49;28.53;;;13.07;;
8708;SDS011;4391;48.678;9.280;2024-02-28T13:20:18;26.55;;;13.68;;
8708;SDS011;4391;48.678;9.280;2024-02-28T13:22:45;30.50;;;13.65;;
8708;SDS011;4391;48.678;9.280;2024-02-28T13:25:13;26.58;;;11.98;;
8708;SDS011;4391;48.678;9.280;2024-02-28T13:27:40;25.08;;;11.10;;
8708;SDS011;4391;48.678;9.280;2024-02-28T13:30:07;25.47;;;10.27;;
8708;SDS011;4391;48.678;9.280;2024-02-28T13:32:41;23.73;;;10.35;;
8708;SDS011;4391;48.678;9.280;2024-02-28T13:35:12;23.63;;;11.07;;
8708;SDS011;4391;48.678;9.280;2024-02-28T13:37:39;22.00;;;9.55;;
8708;SDS011;4391;48.678;9.280;2024-02-28T13:40:07;22.95;;;10.77;;
8708;SDS011;4391;48.678;9.280;2024-02-28T13:42:35;24.10;;;9.77;;
8708;SDS011;4391;48.678;9.280;2024-02-28T13:45:02;30.73;;;11.20;;
8708;SDS011;4391;48.678;9.280;2024-02-28T13:47:32;24.63;;;10.25;;
8708;SDS011;4391;48.678;9.280;2024-02-28T13:50:00;23.65;;;10.07;;
8708;SDS011;4391;48.678;9.280;2024-02-28T13:52:27;25.42;;;9.48;;
8708;SDS011;4391;48.678;9.280;2024-02-28T13:54:54;24.80;;;9.57;;
8708;SDS011;4391;48.678;9.280;2024-02-28T13:57:21;24.73;;;10.13;;
8708;SDS011;4391;48.678;9.280;2024-02-28T13:59:48;22.40;;;9.45;;
8708;SDS011;4391;48.678;9.280;2024-02-28T14:02:18;25.15;;;9.85;;
8708;SDS011;4391;48.678;9.280;2024-02-28T14:04:45;23.52;;;10.07;;
8708;SDS011;4391;48.678;9.280;2024-02-28T14:07:15;23.53;;;11.10;;
8708;SDS011;4391;48.678;9.280;2024-02-28T14:09:42;23.30;;;9.63;;
8708;SDS011;4391;48.678;9.280;2024-02-28T14:12:09;23.70;;;9.60;;
8708;SDS011;4391;48.678;9.280;2024-02-28T14:14:37;29.27;;;10.15;;
8708;SDS011;4391;48.678;9.280;2024-02-28T14:17:04;23.80;;;9.75;;
8708;SDS011;4391;48.678;9.280;2024-02-28T14:19:32;27.27;;;11.00;;
8708;SDS011;4391;48.678;9.280;2024-02-28T14:22:00;22.75;;;10.35;;
8708;SDS011;4391;48.678;9.280;2024-02-28T14:24:28;22.10;;;9.63;;
8708;SDS011;4391;48.678;9.280;2024-02-28T14:29:44;24.67;;;10.30;;
8708;SDS011;4391;48.678;9.280;2024-02-28T14:32:11;26.67;;;9.87;;
8708;SDS011;4391;48.678;9.280;2024-02-28T14:34:41;22.50;;;9.13;;
8708;SDS011;4391;48.678;9.280;2024-02-28T14:37:08;24.13;;;9.93;;
8708;SDS011;4391;48.678;9.280;2024-02-28T14:39:38;21.15;;;8.63;;
8708;SDS011;4391;48.678;9.280;2024-02-28T14:42:05;20.52;;;9.50;;
8708;SDS011;4391;48.678;9.280;2024-02-28T14:44:33;22.27;;;8.93;;
8708;SDS011;4391;48.678;9.280;2024-02-28T14:47:00;22.02;;;9.70;;
8708;SDS011;4391;48.678;9.280;2024-02-28T14:49:27;21.90;;;9.82;;
8708;SDS011;4391;48.678;9.280;2024-02-28T14:51:54;24.23;;;9.70;;
8708;SDS011;4391;48.678;9.280;2024-02-28T14:54:21;23.42;;;9.43;;
8708;SDS011;4391;48.678;9.280;2024-02-28T14:56:49;21.90;;;9.60;;
8708;SDS011;4391;48.678;9.280;2024-02-28T14:59:16;24.00;;;9.27;;